createdAt,value
2023-02-11T00:02:22.539Z,102498.66
2023-02-11T00:04:48.976Z,102499.66
2023-02-11T00:07:15.256Z,102501.53
2023-02-11T00:09:41.547Z,102505.84
2023-02-11T00:12:07.848Z,102517.34
2023-02-11T00:14:34.109Z,102523.47
2023-02-11T00:17:00.452Z,102521.72
2023-02-11T00:19:26.798Z,102526.00
2023-02-11T00:21:53.108Z,102532.16
2023-02-11T00:24:19.375Z,102509.28
2023-02-11T00:26:45.648Z,102507.53
2023-02-11T00:29:11.989Z,102498.81
2023-02-11T00:31:38.404Z,102491.00
2023-02-11T00:34:04.737Z,102489.22
2023-02-11T00:36:31.383Z,102488.38
2023-02-11T00:38:58.385Z,102491.09
2023-02-11T00:41:25.201Z,102475.41
2023-02-11T00:43:52.056Z,102483.06
2023-02-11T00:46:18.445Z,102480.41
2023-02-11T00:48:44.786Z,102481.50
2023-02-11T00:51:11.790Z,102483.25
2023-02-11T00:53:38.598Z,102489.31
2023-02-11T00:56:05.432Z,102484.03
2023-02-11T00:58:31.727Z,102460.47
2023-02-11T01:00:58.446Z,102447.34
2023-02-11T01:03:25.080Z,102438.59
2023-02-11T01:05:51.750Z,102422.94
2023-02-11T01:08:18.766Z,102422.88
2023-02-11T01:10:45.139Z,102411.53
2023-02-11T01:13:11.539Z,102413.47
2023-02-11T01:15:37.921Z,102412.59
2023-02-11T01:18:05.373Z,102403.84
2023-02-11T01:20:31.809Z,102404.88
2023-02-11T01:22:58.087Z,102399.63
2023-02-11T01:25:24.447Z,102403.22
2023-02-11T01:27:50.752Z,102401.56
2023-02-11T01:30:17.143Z,102389.31
2023-02-11T01:32:43.437Z,102391.97
2023-02-11T01:35:10.149Z,102391.09
2023-02-11T01:37:36.848Z,102396.34
2023-02-11T01:40:07.443Z,102392.94
2023-02-11T01:42:33.789Z,102397.28
2023-02-11T01:45:01.652Z,102405.25
2023-02-11T01:47:27.948Z,102395.78
2023-02-11T01:49:57.861Z,102397.63
2023-02-11T01:52:32.001Z,102383.66
2023-02-11T01:55:08.510Z,102372.34
2023-02-11T01:57:38.057Z,102372.28
2023-02-11T02:00:14.307Z,102388.13
2023-02-11T02:03:02.860Z,102395.28
2023-02-11T02:05:36.944Z,102408.38
2023-02-11T02:08:22.049Z,102398.88
2023-02-11T02:10:51.343Z,102390.03
2023-02-11T02:13:17.634Z,102405.75
2023-02-11T02:16:06.693Z,102390.91
2023-02-11T02:18:52.691Z,102388.34
2023-02-11T02:21:43.893Z,102370.19
2023-02-11T02:24:20.203Z,102364.06
2023-02-11T02:27:07.680Z,102366.72
2023-02-11T02:29:50.145Z,102359.72
2023-02-11T02:32:44.255Z,102360.59
2023-02-11T02:35:23.525Z,102344.84
2023-02-11T02:38:13.180Z,102340.53
2023-02-11T02:40:54.748Z,102358.03
2023-02-11T02:43:22.658Z,102359.69
2023-02-11T02:45:49.459Z,102361.44
2023-02-11T02:48:33.443Z,102357.00
2023-02-11T02:51:21.312Z,102354.47
2023-02-11T02:53:58.162Z,102353.72
2023-02-11T02:56:29.989Z,102337.91
2023-02-11T02:59:04.200Z,102345.69
2023-02-11T03:01:49.084Z,102335.19
2023-02-11T03:04:27.047Z,102333.47
2023-02-11T03:07:10.514Z,102331.69
2023-02-11T03:09:44.861Z,102323.66
2023-02-11T03:12:13.474Z,102332.47
2023-02-11T03:14:41.465Z,102321.09
2023-02-11T03:17:09.686Z,102321.03
2023-02-11T03:19:39.374Z,102308.84
2023-02-11T03:22:11.605Z,102316.72
2023-02-11T03:24:41.090Z,102306.25
2023-02-11T03:27:28.985Z,102315.84
2023-02-11T03:30:10.234Z,102306.22
2023-02-11T03:32:41.158Z,102312.19
2023-02-11T03:35:09.958Z,102306.16
2023-02-11T03:37:45.069Z,102307.91
2023-02-11T03:40:15.591Z,102311.56
2023-02-11T03:42:50.843Z,102313.31
2023-02-11T03:45:21.461Z,102322.84
2023-02-11T03:47:53.305Z,102321.09
2023-02-11T03:50:21.488Z,102315.00
2023-02-11T03:52:49.414Z,102320.28
2023-02-11T03:55:18.380Z,102310.72
2023-02-11T03:57:45.041Z,102312.47
2023-02-11T04:00:12.369Z,102312.47
2023-02-11T04:02:39.940Z,102321.31
2023-02-11T04:05:08.064Z,102318.75
2023-02-11T04:07:34.519Z,102322.97
2023-02-11T04:10:01.028Z,102327.34
2023-02-11T04:12:27.389Z,102327.47
2023-02-11T04:14:53.706Z,102329.31
2023-02-11T04:17:20.037Z,102326.56
2023-02-11T04:19:46.363Z,102319.53
2023-02-11T04:22:12.682Z,102324.06
2023-02-11T04:24:39.341Z,102327.63
2023-02-11T04:27:05.621Z,102321.63
2023-02-11T04:29:31.951Z,102314.50
2023-02-11T04:31:58.329Z,102320.69
2023-02-11T04:34:24.698Z,102313.56
2023-02-11T04:36:51.263Z,102304.81
2023-02-11T04:39:17.564Z,102293.63
2023-02-11T04:41:43.883Z,102301.38
2023-02-11T04:44:10.341Z,102288.38
2023-02-11T04:46:36.944Z,102288.25
2023-02-11T04:49:03.634Z,102284.00
2023-02-11T04:51:30.134Z,102276.13
2023-02-11T04:53:56.484Z,102270.78
2023-02-11T04:56:22.845Z,102272.50
2023-02-11T04:58:49.139Z,102278.66
2023-02-11T05:01:16.159Z,102273.38
2023-02-11T05:03:42.933Z,102262.94
2023-02-11T05:06:10.182Z,102259.31
2023-02-11T05:08:36.549Z,102245.19
2023-02-11T05:11:02.909Z,102251.22
2023-02-11T05:13:29.580Z,102252.03
2023-02-11T05:15:56.035Z,102244.22
2023-02-11T05:18:22.550Z,102238.00
2023-02-11T05:20:48.886Z,102227.59
2023-02-11T05:23:15.152Z,102225.16
2023-02-11T05:25:41.425Z,102230.41
2023-02-11T05:28:07.949Z,102220.81
2023-02-11T05:30:34.465Z,102221.69
2023-02-11T05:33:00.748Z,102216.50
2023-02-11T05:35:27.032Z,102209.53
2023-02-11T05:37:53.299Z,102220.91
2023-02-11T05:40:19.674Z,102217.41
2023-02-11T05:42:45.971Z,102201.72
2023-02-11T05:45:12.268Z,102207.81
2023-02-11T05:47:38.530Z,102210.50
2023-02-11T05:50:05.099Z,102223.81
2023-02-11T05:52:31.390Z,102225.53
2023-02-11T05:54:57.779Z,102229.84
2023-02-11T05:57:24.056Z,102220.09
2023-02-11T05:59:50.379Z,102221.09
2023-02-11T06:02:16.760Z,102228.16
2023-02-11T06:04:43.075Z,102224.69
2023-02-11T06:07:09.392Z,102225.69
2023-02-11T06:09:36.912Z,102223.91
2023-02-11T06:12:04.586Z,102225.69
2023-02-11T06:14:33.142Z,102217.78
2023-02-11T06:16:59.667Z,102223.03
2023-02-11T06:19:26.157Z,102212.53
2023-02-11T06:21:52.451Z,102209.13
2023-02-11T06:24:33.144Z,102223.22
2023-02-11T06:27:05.189Z,102211.81
2023-02-11T06:29:31.546Z,102208.34
2023-02-11T06:31:58.164Z,102201.41
2023-02-11T06:34:24.521Z,102209.19
2023-02-11T06:36:50.824Z,102204.81
2023-02-11T06:39:17.164Z,102192.69
2023-02-11T06:41:43.458Z,102198.78
2023-02-11T06:44:09.722Z,102193.66
2023-02-11T06:46:36.078Z,102198.94
2023-02-11T06:49:02.423Z,102199.06
2023-02-11T06:51:28.760Z,102208.00
2023-02-11T06:53:55.061Z,102188.75
2023-02-11T06:56:23.034Z,102206.25
2023-02-11T06:58:53.402Z,102214.28
2023-02-11T07:01:19.865Z,102207.28
2023-02-11T07:03:46.249Z,102206.50
2023-02-11T07:06:18.685Z,102196.06
2023-02-11T07:08:45.798Z,102194.41
2023-02-11T07:11:14.395Z,102194.38
2023-02-11T07:13:40.830Z,102190.91
2023-02-11T07:16:09.318Z,102197.28
2023-02-11T07:18:35.663Z,102178.03
2023-02-11T07:21:10.250Z,102179.88
2023-02-11T07:23:37.418Z,102180.00
2023-02-11T07:26:08.723Z,102175.56
2023-02-11T07:28:36.785Z,102169.56
2023-02-11T07:31:11.558Z,102164.44
2023-02-11T07:33:38.231Z,102168.03
2023-02-11T07:36:06.357Z,102174.19
2023-02-11T07:38:33.927Z,102176.09
2023-02-11T07:41:01.085Z,102174.38
2023-02-11T07:43:27.881Z,102173.53
2023-02-11T07:45:54.251Z,102178.94
2023-02-11T07:48:20.544Z,102177.19
2023-02-11T07:50:46.801Z,102170.25
2023-02-11T07:53:13.188Z,102185.22
2023-02-11T07:55:39.457Z,102191.38
2023-02-11T07:58:05.794Z,102188.78
2023-02-11T08:00:32.070Z,102180.09
2023-02-11T08:02:58.378Z,102195.06
2023-02-11T08:05:24.705Z,102194.19
2023-02-11T08:07:54.209Z,102192.50
2023-02-11T08:10:21.369Z,102205.69
2023-02-11T08:12:48.044Z,102210.19
2023-02-11T08:15:14.429Z,102206.63
2023-02-11T08:17:40.696Z,102218.84
2023-02-11T08:20:07.280Z,102211.88
2023-02-11T08:22:34.997Z,102210.19
2023-02-11T08:25:01.300Z,102204.88
2023-02-11T08:27:27.625Z,102209.31
2023-02-11T08:29:54.371Z,102211.00
2023-02-11T08:32:21.685Z,102218.91
2023-02-11T08:34:52.148Z,102223.28
2023-02-11T08:37:18.968Z,102224.16
2023-02-11T08:39:45.513Z,102237.38
2023-02-11T08:42:11.908Z,102236.47
2023-02-11T08:44:38.209Z,102222.41
2023-02-11T08:47:04.736Z,102201.31
2023-02-11T08:49:31.409Z,102204.81
2023-02-11T08:51:57.672Z,102194.34
2023-02-11T08:54:23.961Z,102179.47
2023-02-11T08:56:51.852Z,102183.00
2023-02-11T08:59:18.601Z,102185.66
2023-02-11T09:01:45.495Z,102182.94
2023-02-11T09:04:12.232Z,102191.78
2023-02-11T09:06:38.781Z,102204.88
2023-02-11T09:09:05.154Z,102211.97
2023-02-11T09:11:35.112Z,102217.22
2023-02-11T09:14:02.439Z,102205.81
2023-02-11T09:16:31.980Z,102200.63
2023-02-11T09:18:59.446Z,102215.47
2023-02-11T09:21:26.295Z,102218.22
2023-02-11T09:23:52.806Z,102222.56
2023-02-11T09:26:22.317Z,102209.47
2023-02-11T09:28:49.019Z,102225.25
2023-02-11T09:31:18.812Z,102231.41
2023-02-11T09:33:47.012Z,102235.84
2023-02-11T09:36:20.339Z,102237.69
2023-02-11T09:38:47.685Z,102233.28
2023-02-11T09:41:58.961Z,102234.22
2023-02-11T09:44:31.138Z,102239.56
2023-02-11T09:47:23.104Z,102242.19
2023-02-11T09:49:51.076Z,102253.63
2023-02-11T09:52:24.504Z,102247.53
2023-02-11T09:55:02.774Z,102246.56
2023-02-11T09:57:37.085Z,102255.41
2023-02-11T10:00:28.387Z,102249.22
2023-02-11T10:03:18.726Z,102249.28
2023-02-11T10:05:58.036Z,102250.22
2023-02-11T10:08:33.342Z,102257.19
2023-02-11T10:11:31.181Z,102266.84
2023-02-11T10:14:24.251Z,102260.69
2023-02-11T10:17:14.439Z,102254.50
2023-02-11T10:20:18.130Z,102252.78
2023-02-11T10:22:55.622Z,102258.94
2023-02-11T10:25:37.409Z,102269.47
2023-02-11T10:28:13.829Z,102272.13
2023-02-11T10:30:56.463Z,102268.66
2023-02-11T10:33:43.952Z,102258.19
2023-02-11T10:36:12.582Z,102256.44
2023-02-11T10:38:39.485Z,102251.25
2023-02-11T10:41:06.331Z,102233.72
2023-02-11T10:43:33.295Z,102218.84
2023-02-11T10:46:02.608Z,102230.22
2023-02-11T10:48:49.368Z,102220.66
2023-02-11T10:51:23.232Z,102232.06
2023-02-11T10:54:11.906Z,102229.50
2023-02-11T10:56:51.253Z,102226.94
2023-02-11T10:59:29.329Z,102222.59
2023-02-11T11:02:06.623Z,102220.78
2023-02-11T11:04:39.033Z,102231.38
2023-02-11T11:07:14.614Z,102235.78
2023-02-11T11:09:56.022Z,102237.53
2023-02-11T11:12:36.142Z,102234.88
2023-02-11T11:15:13.714Z,102229.59
2023-02-11T11:17:40.256Z,102217.28
2023-02-11T11:20:23.391Z,102204.16
2023-02-11T11:22:52.388Z,102198.91
2023-02-11T11:25:27.904Z,102199.78
2023-02-11T11:27:57.552Z,102214.72
2023-02-11T11:30:31.627Z,102214.72
2023-02-11T11:32:58.978Z,102232.38
2023-02-11T11:35:30.857Z,102227.09
2023-02-11T11:38:02.151Z,102206.88
2023-02-11T11:40:34.045Z,102209.56
2023-02-11T11:43:14.427Z,102201.72
2023-02-11T11:45:56.367Z,102209.66
2023-02-11T11:48:28.480Z,102204.41
2023-02-11T11:51:15.006Z,102214.13
2023-02-11T11:53:51.016Z,102210.63
2023-02-11T11:56:22.499Z,102211.56
2023-02-11T11:58:50.078Z,102213.28
2023-02-11T12:01:31.489Z,102212.44
2023-02-11T12:04:23.779Z,102212.50
2023-02-11T12:07:07.495Z,102209.06
2023-02-11T12:09:58.395Z,102218.78
2023-02-11T12:12:45.837Z,102206.50
2023-02-11T12:15:32.914Z,102198.69
2023-02-11T12:18:20.192Z,102206.59
2023-02-11T12:20:52.784Z,102208.41
2023-02-11T12:23:54.741Z,102219.81
2023-02-11T12:26:40.469Z,102218.13
2023-02-11T12:29:25.067Z,102228.72
2023-02-11T12:32:17.485Z,102238.34
2023-02-11T12:34:52.596Z,102241.91
2023-02-11T12:37:27.736Z,102232.22
2023-02-11T12:40:22.728Z,102245.41
2023-02-11T12:43:06.170Z,102231.34
2023-02-11T12:45:50.640Z,102223.44
2023-02-11T12:48:28.980Z,102218.13
2023-02-11T12:51:32.949Z,102236.53
2023-02-11T12:54:18.324Z,102239.16
2023-02-11T12:56:55.220Z,102247.06
2023-02-11T12:59:34.376Z,102237.44
2023-02-11T13:02:10.178Z,102240.91
2023-02-11T13:04:46.258Z,102247.97
2023-02-11T13:07:23.400Z,102246.22
2023-02-11T13:10:03.116Z,102262.97
2023-02-11T13:12:30.198Z,102262.88
2023-02-11T13:15:03.077Z,102262.88
2023-02-11T13:17:39.960Z,102262.00
2023-02-11T13:20:26.527Z,102267.28
2023-02-11T13:23:20.569Z,102262.94
2023-02-11T13:25:53.961Z,102268.19
2023-02-11T13:28:40.090Z,102266.44
2023-02-11T13:31:07.162Z,102254.16
2023-02-11T13:33:38.146Z,102256.84
2023-02-11T13:36:04.885Z,102257.72
2023-02-11T13:38:32.629Z,102262.16
2023-02-11T13:41:34.396Z,102269.25
2023-02-11T13:44:08.316Z,102271.00
2023-02-11T13:46:56.650Z,102273.59
2023-02-11T13:49:27.689Z,102270.13
2023-02-11T13:51:55.298Z,102273.69
2023-02-11T13:54:34.415Z,102271.06
2023-02-11T13:57:19.499Z,102269.31
2023-02-11T13:59:51.516Z,102264.91
2023-02-11T14:02:23.137Z,102263.22
2023-02-11T14:05:20.453Z,102263.25
2023-02-11T14:08:11.633Z,102268.50
2023-02-11T14:10:40.858Z,102264.09
2023-02-11T14:13:32.958Z,102273.75
2023-02-11T14:16:11.520Z,102279.03
2023-02-11T14:18:57.443Z,102278.19
2023-02-11T14:21:26.489Z,102280.78
2023-02-11T14:24:13.737Z,102280.75
2023-02-11T14:27:07.134Z,102285.19
2023-02-11T14:29:44.955Z,102280.75
2023-02-11T14:32:43.589Z,102281.66
2023-02-11T14:35:26.339Z,102277.31
2023-02-11T14:38:00.802Z,102282.59
2023-02-11T14:40:48.012Z,102286.13
2023-02-11T14:43:23.095Z,102293.13
2023-02-11T14:45:55.477Z,102292.25
2023-02-11T14:48:29.292Z,102300.16
2023-02-11T14:51:15.943Z,102306.38
2023-02-11T14:53:49.456Z,102305.50
2023-02-11T14:56:19.510Z,102305.44
2023-02-11T14:58:47.406Z,102307.22
2023-02-11T15:01:27.621Z,102306.38
2023-02-11T15:03:54.007Z,102317.81
2023-02-11T15:06:26.590Z,102315.16
2023-02-11T15:09:17.706Z,102326.56
2023-02-11T15:11:47.399Z,102324.84
2023-02-11T15:14:31.873Z,102334.50
2023-02-11T15:17:01.147Z,102345.00
2023-02-11T15:19:41.213Z,102345.88
2023-02-11T15:22:17.973Z,102343.25
2023-02-11T15:24:44.335Z,102347.69
2023-02-11T15:27:13.390Z,102352.91
2023-02-11T15:29:45.718Z,102352.91
2023-02-11T15:32:23.600Z,102366.09
2023-02-11T15:34:52.594Z,102367.88
2023-02-11T15:37:24.046Z,102369.63
2023-02-11T15:39:51.281Z,102358.22
2023-02-11T15:42:22.753Z,102375.88
2023-02-11T15:45:07.586Z,102378.47
2023-02-11T15:47:34.168Z,102372.38
2023-02-11T15:50:00.500Z,102374.06
2023-02-11T15:52:28.222Z,102375.81
2023-02-11T15:54:57.926Z,102363.53
2023-02-11T15:57:24.211Z,102374.06
2023-02-11T15:59:53.091Z,102375.88
2023-02-11T16:02:34.059Z,102371.44
2023-02-11T16:05:04.695Z,102378.47
2023-02-11T16:07:50.507Z,102389.03
2023-02-11T16:10:17.656Z,102387.25
2023-02-11T16:12:55.678Z,102386.31
2023-02-11T16:15:34.039Z,102395.16
2023-02-11T16:18:13.375Z,102389.06
2023-02-11T16:20:40.065Z,102374.13
2023-02-11T16:23:07.485Z,102376.72
2023-02-11T16:25:37.359Z,102388.19
2023-02-11T16:28:04.176Z,102394.34
2023-02-11T16:30:34.973Z,102406.63
2023-02-11T16:33:01.268Z,102407.47
2023-02-11T16:35:27.574Z,102411.94
2023-02-11T16:37:53.854Z,102411.06
2023-02-11T16:40:20.252Z,102406.66
2023-02-11T16:42:46.552Z,102401.38
2023-02-11T16:45:13.616Z,102418.06
2023-02-11T16:47:41.848Z,102417.22
2023-02-11T16:50:10.607Z,102418.09
2023-02-11T16:52:37.244Z,102424.34
2023-02-11T16:55:05.086Z,102430.50
2023-02-11T16:57:31.638Z,102438.38
2023-02-11T16:59:58.353Z,102436.66
2023-02-11T17:02:28.317Z,102431.38
2023-02-11T17:04:57.779Z,102443.63
2023-02-11T17:07:24.134Z,102430.44
2023-02-11T17:09:50.849Z,102445.38
2023-02-11T17:12:17.209Z,102437.53
2023-02-11T17:14:43.600Z,102456.81
2023-02-11T17:17:11.205Z,102461.28
2023-02-11T17:19:37.964Z,102457.78
2023-02-11T17:22:04.495Z,102460.41
2023-02-11T17:24:30.878Z,102450.72
2023-02-11T17:26:57.271Z,102463.84
2023-02-11T17:29:25.080Z,102473.53
2023-02-11T17:31:52.657Z,102477.06
2023-02-11T17:34:20.105Z,102471.81
2023-02-11T17:36:46.421Z,102474.41
2023-02-11T17:39:12.976Z,102483.19
2023-02-11T17:41:40.306Z,102478.88
2023-02-11T17:44:08.010Z,102470.88
2023-02-11T17:46:35.365Z,102484.97
2023-02-11T17:49:02.428Z,102477.97
2023-02-11T17:51:31.767Z,102482.31
2023-02-11T17:54:02.370Z,102492.00
2023-02-11T17:56:31.884Z,102492.88
2023-02-11T17:58:58.170Z,102499.09
2023-02-11T18:01:28.086Z,102500.91
2023-02-11T18:03:54.463Z,102511.41
2023-02-11T18:06:20.764Z,102518.41
2023-02-11T18:08:47.621Z,102510.50
2023-02-11T18:11:15.441Z,102523.78
2023-02-11T18:13:42.973Z,102518.44
2023-02-11T18:16:09.217Z,102520.19
2023-02-11T18:18:35.673Z,102530.75
2023-02-11T18:21:03.544Z,102532.56
2023-02-11T18:23:30.397Z,102539.59
2023-02-11T18:25:56.673Z,102543.06
2023-02-11T18:28:22.981Z,102541.34
2023-02-11T18:30:56.524Z,102540.56
2023-02-11T18:33:22.915Z,102558.94
2023-02-11T18:35:49.571Z,102559.78
2023-02-11T18:38:15.923Z,102568.63
2023-02-11T18:40:42.353Z,102576.47
2023-02-11T18:43:08.625Z,102571.19
2023-02-11T18:45:34.985Z,102587.91
2023-02-11T18:48:01.417Z,102582.59
2023-02-11T18:50:27.891Z,102584.38
2023-02-11T18:52:54.181Z,102588.75
2023-02-11T18:55:23.485Z,102587.03
2023-02-11T18:57:49.908Z,102591.41
2023-02-11T19:00:16.647Z,102591.41
2023-02-11T19:02:42.932Z,102598.38
2023-02-11T19:05:09.287Z,102603.66
2023-02-11T19:07:35.713Z,102611.53
2023-02-11T19:10:02.071Z,102607.16
2023-02-11T19:12:28.365Z,102615.00
2023-02-11T19:14:54.657Z,102624.72
2023-02-11T19:17:20.963Z,102619.31
2023-02-11T19:19:47.307Z,102628.19
2023-02-11T19:22:13.584Z,102622.91
2023-02-11T19:24:39.876Z,102624.66
2023-02-11T19:27:06.158Z,102633.41
2023-02-11T19:29:32.647Z,102624.63
2023-02-11T19:31:59.237Z,102625.53
2023-02-11T19:34:25.528Z,102632.50
2023-02-11T19:36:51.960Z,102638.72
2023-02-11T19:39:18.237Z,102639.59
2023-02-11T19:41:44.551Z,102637.81
2023-02-11T19:44:13.532Z,102641.38
2023-02-11T19:46:40.305Z,102632.50
2023-02-11T19:49:07.279Z,102633.31
2023-02-11T19:51:33.872Z,102621.97
2023-02-11T19:54:00.506Z,102629.75
2023-02-11T19:56:27.332Z,102639.38
2023-02-11T19:58:54.064Z,102636.84
2023-02-11T20:01:22.020Z,102638.59
2023-02-11T20:03:50.211Z,102645.69
2023-02-11T20:06:21.981Z,102651.00
2023-02-11T20:08:48.239Z,102658.81
2023-02-11T20:11:16.577Z,102674.69
2023-02-11T20:13:43.864Z,102668.56
2023-02-11T20:16:14.727Z,102653.59
2023-02-11T20:18:41.263Z,102671.97
2023-02-11T20:21:09.345Z,102673.75
2023-02-11T20:23:36.837Z,102680.78
2023-02-11T20:26:10.259Z,102674.69
2023-02-11T20:28:37.146Z,102674.69
2023-02-11T20:31:04.450Z,102688.69
2023-02-11T20:33:31.993Z,102692.22
2023-02-11T20:36:07.330Z,102690.47
2023-02-11T20:38:34.152Z,102688.75
2023-02-11T20:41:12.562Z,102698.44
2023-02-11T20:43:39.019Z,102702.84
2023-02-11T20:46:06.564Z,102696.59
2023-02-11T20:48:33.233Z,102701.00
2023-02-11T20:51:17.756Z,102707.16
2023-02-11T20:53:48.306Z,102710.69
2023-02-11T20:56:16.003Z,102708.97
2023-02-11T20:58:42.407Z,102713.38
2023-02-11T21:01:16.263Z,102711.53
2023-02-11T21:03:43.785Z,102719.44
2023-02-11T21:06:10.780Z,102708.03
2023-02-11T21:08:37.695Z,102714.19
2023-02-11T21:11:04.151Z,102723.84
2023-02-11T21:13:30.440Z,102729.94
2023-02-11T21:15:57.302Z,102737.84
2023-02-11T21:18:23.862Z,102744.88
2023-02-11T21:20:50.488Z,102744.81
2023-02-11T21:23:17.032Z,102741.34
2023-02-11T21:25:43.324Z,102763.28
2023-02-11T21:28:09.641Z,102758.94
2023-02-11T21:30:38.409Z,102762.44
2023-02-11T21:33:05.785Z,102770.25
2023-02-11T21:35:33.678Z,102775.63
2023-02-11T21:37:59.967Z,102766.81
2023-02-11T21:40:26.495Z,102780.81
2023-02-11T21:42:53.494Z,102779.16
2023-02-11T21:45:19.787Z,102772.03
2023-02-11T21:47:46.155Z,102790.47
2023-02-11T21:50:12.564Z,102787.75
2023-02-11T21:52:38.859Z,102788.66
2023-02-11T21:55:05.565Z,102791.22
2023-02-11T21:57:31.892Z,102795.59
2023-02-11T21:59:58.172Z,102793.91
2023-02-11T22:02:24.485Z,102801.75
2023-02-11T22:04:50.960Z,102798.25
2023-02-11T22:07:17.383Z,102799.88
2023-02-11T22:09:43.673Z,102805.19
2023-02-11T22:12:09.948Z,102811.34
2023-02-11T22:14:36.763Z,102812.19
2023-02-11T22:17:03.933Z,102817.56
2023-02-11T22:19:30.329Z,102830.66
2023-02-11T22:21:56.622Z,102833.19
2023-02-11T22:24:22.916Z,102839.50
2023-02-11T22:26:49.188Z,102835.84
2023-02-11T22:29:15.483Z,102849.91
